sensor_id;sensor_type;location;lat;lon;timestamp;pressure;altitude;pressure_sealevel;temperature;humidity
63204;BME280;49297;43.210;27.914;2023-08-24T00:02:11;101088.41;;;26.76;60.26
63204;BME280;49297;43.210;27.914;2023-08-24T00:04:37;101087.81;;;26.74;60.17
63204;BME280;49297;43.210;27.914;2023-08-24T00:07:03;101088.88;;;26.73;60.91
63204;BME280;49297;43.210;27.914;2023-08-24T00:09:29;101092.06;;;26.70;61.00
63204;BME280;49297;43.210;27.914;2023-08-24T00:11:55;101086.63;;;26.70;61.46
63204;BME280;49297;43.210;27.914;2023-08-24T00:14:20;101088.53;;;26.69;61.23
63204;BME280;49297;43.210;27.914;2023-08-24T00:16:46;101091.47;;;26.68;61.23
63204;BME280;49297;43.210;27.914;2023-08-24T00:19:13;101091.69;;;26.66;60.82
63204;BME280;49297;43.210;27.914;2023-08-24T00:21:39;101090.06;;;26.65;60.49
63204;BME280;49297;43.210;27.914;2023-08-24T00:24:04;101099.25;;;26.64;60.02
63204;BME280;49297;43.210;27.914;2023-08-24T00:26:30;101094.06;;;26.63;59.19
63204;BME280;49297;43.210;27.914;2023-08-24T00:28:56;101093.25;;;26.62;58.71
63204;BME280;49297;43.210;27.914;2023-08-24T00:31:23;101094.06;;;26.63;57.97
63204;BME280;49297;43.210;27.914;2023-08-24T00:33:48;101102.19;;;26.63;58.24
63204;BME280;49297;43.210;27.914;2023-08-24T00:36:16;101087.34;;;26.65;59.33
63204;BME280;49297;43.210;27.914;2023-08-24T00:38:43;101092.53;;;26.67;59.80
63204;BME280;49297;43.210;27.914;2023-08-24T00:41:09;101087.69;;;26.69;60.22
63204;BME280;49297;43.210;27.914;2023-08-24T00:43:35;101095.00;;;26.68;60.38
63204;BME280;49297;43.210;27.914;2023-08-24T00:46:02;101093.59;;;26.66;60.50
63204;BME280;49297;43.210;27.914;2023-08-24T00:48:31;101096.53;;;26.64;60.38
63204;BME280;49297;43.210;27.914;2023-08-24T00:50:59;101097.00;;;26.61;60.41
63204;BME280;49297;43.210;27.914;2023-08-24T00:53:26;101092.03;;;26.58;60.44
63204;BME280;49297;43.210;27.914;2023-08-24T00:55:53;101096.25;;;26.54;60.67
63204;BME280;49297;43.210;27.914;2023-08-24T00:58:20;101098.03;;;26.48;60.68
63204;BME280;49297;43.210;27.914;2023-08-24T01:00:46;101094.81;;;26.39;61.33
63204;BME280;49297;43.210;27.914;2023-08-24T01:03:13;101089.16;;;26.29;61.73
63204;BME280;49297;43.210;27.914;2023-08-24T01:05:42;101086.06;;;26.14;62.28
63204;BME280;49297;43.210;27.914;2023-08-24T01:08:08;101080.97;;;26.06;62.98
63204;BME280;49297;43.210;27.914;2023-08-24T01:13:38;101082.63;;;25.88;63.30
63204;BME280;49297;43.210;27.914;2023-08-24T01:16:18;101081.69;;;25.82;63.86
63204;BME280;49297;43.210;27.914;2023-08-24T01:18:45;101079.66;;;25.78;63.34
63204;BME280;49297;43.210;27.914;2023-08-24T01:21:15;101085.19;;;25.71;62.68
63204;BME280;49297;43.210;27.914;2023-08-24T01:24:03;101082.91;;;25.68;62.71
63204;BME280;49297;43.210;27.914;2023-08-24T01:26:30;101078.19;;;25.63;62.77
63204;BME280;49297;43.210;27.914;2023-08-24T01:28:56;101077.56;;;25.61;62.32
63204;BME280;49297;43.210;27.914;2023-08-24T01:31:24;101076.97;;;25.59;62.79
63204;BME280;49297;43.210;27.914;2023-08-24T01:33:50;101074.28;;;25.59;62.96
63204;BME280;49297;43.210;27.914;2023-08-24T01:36:17;101072.16;;;25.61;62.77
63204;BME280;49297;43.210;27.914;2023-08-24T01:38:45;101070.88;;;25.64;62.32
63204;BME280;49297;43.210;27.914;2023-08-24T01:41:22;101060.28;;;25.62;62.60
63204;BME280;49297;43.210;27.914;2023-08-24T01:43:53;101064.66;;;25.63;62.37
63204;BME280;49297;43.210;27.914;2023-08-24T01:46:22;101057.09;;;25.65;62.48
63204;BME280;49297;43.210;27.914;2023-08-24T01:48:52;101057.69;;;25.68;62.45
63204;BME280;49297;43.210;27.914;2023-08-24T01:51:19;101060.19;;;25.69;62.58
63204;BME280;49297;43.210;27.914;2023-08-24T01:53:45;101058.06;;;25.71;62.64
63204;BME280;49297;43.210;27.914;2023-08-24T01:56:12;101054.06;;;25.74;62.43
63204;BME280;49297;43.210;27.914;2023-08-24T01:58:40;101050.06;;;25.76;62.71
63204;BME280;49297;43.210;27.914;2023-08-24T02:01:08;101047.13;;;25.78;62.66
63204;BME280;49297;43.210;27.914;2023-08-24T02:03:33;101045.25;;;25.78;62.69
63204;BME280;49297;43.210;27.914;2023-08-24T02:06:02;101050.06;;;25.76;62.67
63204;BME280;49297;43.210;27.914;2023-08-24T02:08:30;101056.53;;;25.75;62.89
63204;BME280;49297;43.210;27.914;2023-08-24T02:10:56;101054.41;;;25.77;62.76
63204;BME280;49297;43.210;27.914;2023-08-24T02:13:21;101052.78;;;25.76;62.63
63204;BME280;49297;43.210;27.914;2023-08-24T02:15:47;101045.69;;;25.75;63.12
63204;BME280;49297;43.210;27.914;2023-08-24T02:18:13;101052.78;;;25.76;62.58
63204;BME280;49297;43.210;27.914;2023-08-24T02:20:39;101050.91;;;25.77;62.60
63204;BME280;49297;43.210;27.914;2023-08-24T02:23:05;101055.03;;;25.79;62.56
63204;BME280;49297;43.210;27.914;2023-08-24T02:25:31;101052.34;;;25.79;62.41
63204;BME280;49297;43.210;27.914;2023-08-24T02:27:57;101058.56;;;25.80;62.20
63204;BME280;49297;43.210;27.914;2023-08-24T02:30:23;101051.47;;;25.79;62.22
63204;BME280;49297;43.210;27.914;2023-08-24T02:32:49;101059.63;;;25.79;62.21
63204;BME280;49297;43.210;27.914;2023-08-24T02:35:15;101055.28;;;25.78;62.23
63204;BME280;49297;43.210;27.914;2023-08-24T02:37:41;101057.97;;;25.78;61.96
63204;BME280;49297;43.210;27.914;2023-08-24T02:40:07;101054.69;;;25.76;61.86
63204;BME280;49297;43.210;27.914;2023-08-24T02:42:35;101056.31;;;25.77;61.31
63204;BME280;49297;43.210;27.914;2023-08-24T02:45:01;101059.84;;;25.77;60.15
63204;BME280;49297;43.210;27.914;2023-08-24T02:47:26;101057.38;;;25.76;59.54
63204;BME280;49297;43.210;27.914;2023-08-24T02:49:52;101055.28;;;25.78;59.21
63204;BME280;49297;43.210;27.914;2023-08-24T02:52:18;101050.91;;;25.77;59.05
63204;BME280;49297;43.210;27.914;2023-08-24T02:54:44;101055.28;;;25.78;58.77
63204;BME280;49297;43.210;27.914;2023-08-24T02:57:09;101051.72;;;25.77;58.82
63204;BME280;49297;43.210;27.914;2023-08-24T02:59:35;101049.00;;;25.77;58.45
63204;BME280;49297;43.210;27.914;2023-08-24T03:02:01;101051.47;;;25.79;58.76
63204;BME280;49297;43.210;27.914;2023-08-24T03:04:27;101047.97;;;25.78;58.45
63204;BME280;49297;43.210;27.914;2023-08-24T03:06:52;101049.38;;;25.81;58.46
63204;BME280;49297;43.210;27.914;2023-08-24T03:09:18;101049.38;;;25.81;58.64
63204;BME280;49297;43.210;27.914;2023-08-24T03:11:44;101047.50;;;25.81;58.46
63204;BME280;49297;43.210;27.914;2023-08-24T03:14:10;101049.38;;;25.81;59.25
63204;BME280;49297;43.210;27.914;2023-08-24T03:16:37;101051.84;;;25.82;58.88
63204;BME280;49297;43.210;27.914;2023-08-24T03:19:04;101045.16;;;25.85;58.86
63204;BME280;49297;43.210;27.914;2023-08-24T03:21:30;101058.50;;;25.87;59.52
63204;BME280;49297;43.210;27.914;2023-08-24T03:23:56;101050.34;;;25.87;59.26
63204;BME280;49297;43.210;27.914;2023-08-24T03:26:23;101058.50;;;25.87;59.60
63204;BME280;49297;43.210;27.914;2023-08-24T03:28:49;101054.94;;;25.86;59.66
63204;BME280;49297;43.210;27.914;2023-08-24T03:31:16;101054.69;;;25.88;59.43
63204;BME280;49297;43.210;27.914;2023-08-24T03:33:41;101061.78;;;25.89;59.95
63204;BME280;49297;43.210;27.914;2023-08-24T03:36:07;101055.28;;;25.90;59.91
63204;BME280;49297;43.210;27.914;2023-08-24T03:38:34;101058.84;;;25.90;60.24
63204;BME280;49297;43.210;27.914;2023-08-24T03:41:03;101057.19;;;25.89;60.73
63204;BME280;49297;43.210;27.914;2023-08-24T03:43:34;101056.13;;;25.90;60.72
63204;BME280;49297;43.210;27.914;2023-08-24T03:46:01;101057.19;;;25.89;60.31
63204;BME280;49297;43.210;27.914;2023-08-24T03:48:27;101056.72;;;25.92;60.57
63204;BME280;49297;43.210;27.914;2023-08-24T03:50:57;101060.88;;;25.95;61.45
63204;BME280;49297;43.210;27.914;2023-08-24T03:53:24;101062.31;;;25.97;61.34
63204;BME280;49297;43.210;27.914;2023-08-24T03:55:50;101065.63;;;25.99;61.53
63204;BME280;49297;43.210;27.914;2023-08-24T03:58:16;101059.97;;;26.01;61.75
63204;BME280;49297;43.210;27.914;2023-08-24T04:00:43;101058.66;;;26.03;61.65
63204;BME280;49297;43.210;27.914;2023-08-24T04:03:09;101066.81;;;26.03;61.90
63204;BME280;49297;43.210;27.914;2023-08-24T04:05:35;101073.03;;;26.04;62.25
63204;BME280;49297;43.210;27.914;2023-08-24T04:08:01;101069.28;;;26.05;61.96
63204;BME280;49297;43.210;27.914;2023-08-24T04:10:30;101061.16;;;26.05;61.90
63204;BME280;49297;43.210;27.914;2023-08-24T04:12:55;101070.09;;;26.06;62.11
63204;BME280;49297;43.210;27.914;2023-08-24T04:15:21;101054.06;;;26.04;61.82
63204;BME280;49297;43.210;27.914;2023-08-24T04:17:48;101059.47;;;26.04;61.88
63204;BME280;49297;43.210;27.914;2023-08-24T04:20:14;101063.03;;;26.05;61.87
63204;BME280;49297;43.210;27.914;2023-08-24T04:22:44;101058.22;;;26.07;61.68
63204;BME280;49297;43.210;27.914;2023-08-24T04:25:09;101067.75;;;26.09;61.63
63204;BME280;49297;43.210;27.914;2023-08-24T04:27:36;101066.25;;;26.13;61.64
63204;BME280;49297;43.210;27.914;2023-08-24T04:30:02;101072.03;;;26.17;61.75
63204;BME280;49297;43.210;27.914;2023-08-24T04:32:28;101068.84;;;26.20;61.64
63204;BME280;49297;43.210;27.914;2023-08-24T04:34:54;101067.34;;;26.24;61.84
63204;BME280;49297;43.210;27.914;2023-08-24T04:37:20;101068.28;;;26.30;61.14
63204;BME280;49297;43.210;27.914;2023-08-24T04:39:46;101062.97;;;26.35;61.20
63204;BME280;49297;43.210;27.914;2023-08-24T04:42:12;101060.97;;;26.42;61.29
63204;BME280;49297;43.210;27.914;2023-08-24T04:44:37;101058.25;;;26.54;60.79
63204;BME280;49297;43.210;27.914;2023-08-24T04:47:04;101055.59;;;26.66;60.62
63204;BME280;49297;43.210;27.914;2023-08-24T04:49:30;101064.19;;;26.74;60.49
63204;BME280;49297;43.210;27.914;2023-08-24T04:51:56;101071.38;;;26.81;60.35
63204;BME280;49297;43.210;27.914;2023-08-24T04:54:22;101071.50;;;26.86;60.12
63204;BME280;49297;43.210;27.914;2023-08-24T04:56:47;101071.38;;;26.92;60.18
63204;BME280;49297;43.210;27.914;2023-08-24T04:59:13;101064.41;;;26.96;60.15
63204;BME280;49297;43.210;27.914;2023-08-24T05:01:39;101077.63;;;27.05;60.10
63204;BME280;49297;43.210;27.914;2023-08-24T05:04:05;101078.09;;;27.13;59.97
63204;BME280;49297;43.210;27.914;2023-08-24T05:06:31;101077.13;;;27.20;59.73
63204;BME280;49297;43.210;27.914;2023-08-24T05:08:56;101075.97;;;27.27;59.60
63204;BME280;49297;43.210;27.914;2023-08-24T05:11:24;101077.25;;;27.37;59.56
63204;BME280;49297;43.210;27.914;2023-08-24T05:13:50;101079.56;;;27.45;59.11
63204;BME280;49297;43.210;27.914;2023-08-24T05:16:16;101080.00;;;27.53;59.24
63204;BME280;49297;43.210;27.914;2023-08-24T05:18:42;101076.09;;;27.61;59.21
63204;BME280;49297;43.210;27.914;2023-08-24T05:21:07;101077.34;;;27.70;58.94
63204;BME280;49297;43.210;27.914;2023-08-24T05:23:34;101080.50;;;27.79;59.32
63204;BME280;49297;43.210;27.914;2023-08-24T05:26:02;101088.25;;;27.87;59.59
63204;BME280;49297;43.210;27.914;2023-08-24T05:28:29;101091.22;;;27.98;60.24
63204;BME280;49297;43.210;27.914;2023-08-24T05:30:55;101091.06;;;28.04;60.82
63204;BME280;49297;43.210;27.914;2023-08-24T05:33:22;101094.69;;;28.10;61.43
63204;BME280;49297;43.210;27.914;2023-08-24T05:35:49;101086.38;;;28.17;61.21
63204;BME280;49297;43.210;27.914;2023-08-24T05:38:16;101096.03;;;28.24;61.62
63204;BME280;49297;43.210;27.914;2023-08-24T05:40:48;101087.38;;;28.27;61.67
63204;BME280;49297;43.210;27.914;2023-08-24T05:43:14;101097.16;;;28.28;61.61
63204;BME280;49297;43.210;27.914;2023-08-24T05:45:40;101093.38;;;28.29;61.41
63204;BME280;49297;43.210;27.914;2023-08-24T05:48:06;101098.34;;;28.33;61.30
63204;BME280;49297;43.210;27.914;2023-08-24T05:50:34;101101.13;;;28.38;61.29
63204;BME280;49297;43.210;27.914;2023-08-24T05:52:59;101099.00;;;28.40;61.35
63204;BME280;49297;43.210;27.914;2023-08-24T05:55:25;101096.53;;;28.38;61.47
63204;BME280;49297;43.210;27.914;2023-08-24T05:57:51;101097.44;;;28.44;61.27
63204;BME280;49297;43.210;27.914;2023-08-24T06:00:17;101099.16;;;28.50;60.81
63204;BME280;49297;43.210;27.914;2023-08-24T06:02:43;101097.13;;;28.57;60.95
63204;BME280;49297;43.210;27.914;2023-08-24T06:05:08;101107.53;;;28.60;60.92
63204;BME280;49297;43.210;27.914;2023-08-24T06:07:35;101111.97;;;28.66;60.52
63204;BME280;49297;43.210;27.914;2023-08-24T06:10:01;101117.16;;;28.68;60.16
63204;BME280;49297;43.210;27.914;2023-08-24T06:12:27;101114.44;;;28.68;59.42
63204;BME280;49297;43.210;27.914;2023-08-24T06:14:56;101120.47;;;28.70;59.54
63204;BME280;49297;43.210;27.914;2023-08-24T06:17:22;101122.94;;;28.72;59.46
63204;BME280;49297;43.210;27.914;2023-08-24T06:19:47;101115.84;;;28.71;59.78
63204;BME280;49297;43.210;27.914;2023-08-24T06:22:13;101115.03;;;28.70;60.08
63204;BME280;49297;43.210;27.914;2023-08-24T06:24:39;101122.34;;;28.70;60.46
63204;BME280;49297;43.210;27.914;2023-08-24T06:27:05;101122.34;;;28.70;61.23
63204;BME280;49297;43.210;27.914;2023-08-24T06:29:30;101119.88;;;28.68;62.40
63204;BME280;49297;43.210;27.914;2023-08-24T06:31:56;101119.38;;;28.71;62.72
63204;BME280;49297;43.210;27.914;2023-08-24T06:34:22;101126.19;;;28.69;62.73
63204;BME280;49297;43.210;27.914;2023-08-24T06:36:50;101117.09;;;28.63;63.07
63204;BME280;49297;43.210;27.914;2023-08-24T06:39:16;101122.13;;;28.71;63.72
63204;BME280;49297;43.210;27.914;2023-08-24T06:41:42;101129.22;;;28.72;63.97
63204;BME280;49297;43.210;27.914;2023-08-24T06:44:07;101124.03;;;28.71;64.00
63204;BME280;49297;43.210;27.914;2023-08-24T06:46:33;101122.13;;;28.71;64.02
63204;BME280;49297;43.210;27.914;2023-08-24T06:48:59;101129.56;;;28.76;64.12
63204;BME280;49297;43.210;27.914;2023-08-24T06:51:26;101130.84;;;28.73;64.32
63204;BME280;49297;43.210;27.914;2023-08-24T06:53:51;101132.19;;;28.71;64.55
63204;BME280;49297;43.210;27.914;2023-08-24T06:56:17;101136.06;;;28.75;64.66
63204;BME280;49297;43.210;27.914;2023-08-24T06:58:47;101135.00;;;28.76;64.93
63204;BME280;49297;43.210;27.914;2023-08-24T07:01:13;101135.97;;;28.70;65.14
63204;BME280;49297;43.210;27.914;2023-08-24T07:03:39;101136.41;;;28.61;65.45
63204;BME280;49297;43.210;27.914;2023-08-24T07:06:05;101131.53;;;28.63;65.25
63204;BME280;49297;43.210;27.914;2023-08-24T07:08:32;101129.97;;;28.67;65.72
63204;BME280;49297;43.210;27.914;2023-08-24T07:10:58;101142.59;;;28.74;65.73
63204;BME280;49297;43.210;27.914;2023-08-24T07:13:24;101137.47;;;28.77;65.22
63204;BME280;49297;43.210;27.914;2023-08-24T07:15:50;101145.41;;;28.79;65.55
63204;BME280;49297;43.210;27.914;2023-08-24T07:18:16;101153.91;;;28.82;65.32
63204;BME280;49297;43.210;27.914;2023-08-24T07:20:42;101154.22;;;28.86;65.23
63204;BME280;49297;43.210;27.914;2023-08-24T07:23:08;101151.75;;;28.84;65.19
63204;BME280;49297;43.210;27.914;2023-08-24T07:25:33;101149.28;;;28.83;65.60
63204;BME280;49297;43.210;27.914;2023-08-24T07:28:00;101162.66;;;28.84;65.38
63204;BME280;49297;43.210;27.914;2023-08-24T07:30:27;101159.59;;;28.81;65.29
63204;BME280;49297;43.210;27.914;2023-08-24T07:32:53;101160.97;;;28.83;65.07
63204;BME280;49297;43.210;27.914;2023-08-24T07:35:19;101160.25;;;28.88;64.96
63204;BME280;49297;43.210;27.914;2023-08-24T07:37:47;101162.84;;;29.00;64.95
63204;BME280;49297;43.210;27.914;2023-08-24T07:40:14;101167.09;;;29.08;64.87
63204;BME280;49297;43.210;27.914;2023-08-24T07:42:47;101167.50;;;29.16;65.05
63204;BME280;49297;43.210;27.914;2023-08-24T07:45:14;101173.00;;;29.21;64.72
63204;BME280;49297;43.210;27.914;2023-08-24T07:47:40;101170.56;;;29.20;65.12
63204;BME280;49297;43.210;27.914;2023-08-24T07:50:08;101168.09;;;29.18;65.15
63204;BME280;49297;43.210;27.914;2023-08-24T07:52:34;101171.38;;;29.20;65.25
63204;BME280;49297;43.210;27.914;2023-08-24T07:55:00;101168.97;;;29.24;65.21
63204;BME280;49297;43.210;27.914;2023-08-24T07:57:29;101163.06;;;29.32;65.08
63204;BME280;49297;43.210;27.914;2023-08-24T07:59:55;101167.53;;;29.38;64.69
63204;BME280;49297;43.210;27.914;2023-08-24T08:02:20;101170.06;;;29.45;64.94
63204;BME280;49297;43.210;27.914;2023-08-24T08:04:46;101164.38;;;29.47;65.47
63204;BME280;49297;43.210;27.914;2023-08-24T08:07:12;101159.97;;;29.46;65.58
63204;BME280;49297;43.210;27.914;2023-08-24T08:09:38;101159.72;;;29.47;65.70
63204;BME280;49297;43.210;27.914;2023-08-24T08:12:04;101163.22;;;29.42;66.01
63204;BME280;49297;43.210;27.914;2023-08-24T08:14:30;101163.03;;;29.49;66.26
63204;BME280;49297;43.210;27.914;2023-08-24T08:16:56;101164.47;;;29.57;65.94
63204;BME280;49297;43.210;27.914;2023-08-24T08:19:22;101169.63;;;29.53;66.14
63204;BME280;49297;43.210;27.914;2023-08-24T08:21:50;101163.34;;;29.53;66.68
63204;BME280;49297;43.210;27.914;2023-08-24T08:24:16;101157.88;;;29.53;66.52
63204;BME280;49297;43.210;27.914;2023-08-24T08:26:42;101159.59;;;29.59;66.58
63204;BME280;49297;43.210;27.914;2023-08-24T08:29:08;101159.34;;;29.60;66.60
63204;BME280;49297;43.210;27.914;2023-08-24T08:31:33;101163.22;;;29.65;66.85
63204;BME280;49297;43.210;27.914;2023-08-24T08:33:59;101159.16;;;29.67;66.12
63204;BME280;49297;43.210;27.914;2023-08-24T08:36:26;101151.41;;;29.59;65.97
63204;BME280;49297;43.210;27.914;2023-08-24T08:38:52;101158.03;;;29.63;65.26
63204;BME280;49297;43.210;27.914;2023-08-24T08:41:21;101152.38;;;29.70;65.03
63204;BME280;49297;43.210;27.914;2023-08-24T08:43:48;101148.50;;;29.66;65.25
63204;BME280;49297;43.210;27.914;2023-08-24T08:46:15;101155.84;;;29.65;64.44
63204;BME280;49297;43.210;27.914;2023-08-24T08:48:42;101156.94;;;29.64;65.06
63204;BME280;49297;43.210;27.914;2023-08-24T08:51:10;101163.59;;;29.73;64.96
63204;BME280;49297;43.210;27.914;2023-08-24T08:53:38;101156.94;;;29.86;64.76
63204;BME280;49297;43.210;27.914;2023-08-24T08:56:04;101155.16;;;29.97;64.56
63204;BME280;49297;43.210;27.914;2023-08-24T08:58:34;101153.56;;;30.01;63.60
63204;BME280;49297;43.210;27.914;2023-08-24T09:01:04;101157.03;;;29.96;63.41
63204;BME280;49297;43.210;27.914;2023-08-24T09:03:31;101167.94;;;29.91;63.94
63204;BME280;49297;43.210;27.914;2023-08-24T09:05:58;101159.44;;;29.88;64.37
63204;BME280;49297;43.210;27.914;2023-08-24T09:08:27;101158.06;;;29.90;64.54
63204;BME280;49297;43.210;27.914;2023-08-24T09:10:54;101153.44;;;29.91;64.04
63204;BME280;49297;43.210;27.914;2023-08-24T09:13:20;101162.72;;;29.90;63.48
63204;BME280;49297;43.210;27.914;2023-08-24T09:15:46;101149.31;;;29.88;64.05
63204;BME280;49297;43.210;27.914;2023-08-24T09:18:12;101158.63;;;29.92;63.97
63204;BME280;49297;43.210;27.914;2023-08-24T09:20:38;101151.25;;;29.88;64.33
63204;BME280;49297;43.210;27.914;2023-08-24T09:23:04;101161.00;;;29.84;64.54
63204;BME280;49297;43.210;27.914;2023-08-24T09:25:30;101158.59;;;29.87;63.82
63204;BME280;49297;43.210;27.914;2023-08-24T09:27:57;101160.75;;;29.85;64.18
63204;BME280;49297;43.210;27.914;2023-08-24T09:30:25;101157.88;;;29.97;64.24
63204;BME280;49297;43.210;27.914;2023-08-24T09:32:54;101156.66;;;30.10;62.69
63204;BME280;49297;43.210;27.914;2023-08-24T09:35:20;101159.13;;;30.11;63.27
63204;BME280;49297;43.210;27.914;2023-08-24T09:37:50;101154.13;;;30.03;63.84
63204;BME280;49297;43.210;27.914;2023-08-24T09:40:15;101156.84;;;30.03;63.76
63204;BME280;49297;43.210;27.914;2023-08-24T09:42:42;101155.28;;;30.12;62.68
63204;BME280;49297;43.210;27.914;2023-08-24T09:45:11;101154.97;;;30.09;63.10
63204;BME280;49297;43.210;27.914;2023-08-24T09:47:38;101150.81;;;30.01;63.85
63204;BME280;49297;43.210;27.914;2023-08-24T09:50:04;101159.56;;;30.03;63.75
63204;BME280;49297;43.210;27.914;2023-08-24T09:52:32;101150.69;;;30.13;63.88
63204;BME280;49297;43.210;27.914;2023-08-24T09:55:03;101144.47;;;30.23;63.32
63204;BME280;49297;43.210;27.914;2023-08-24T09:57:40;101150.75;;;30.23;63.35
63204;BME280;49297;43.210;27.914;2023-08-24T10:00:10;101142.88;;;30.27;62.76
63204;BME280;49297;43.210;27.914;2023-08-24T10:02:40;101136.09;;;30.29;62.84
63204;BME280;49297;43.210;27.914;2023-08-24T10:05:11;101146.28;;;30.39;62.28
63204;BME280;49297;43.210;27.914;2023-08-24T10:07:43;101145.25;;;30.45;62.17
63204;BME280;49297;43.210;27.914;2023-08-24T10:10:11;101144.22;;;30.51;62.38
63204;BME280;49297;43.210;27.914;2023-08-24T10:12:41;101142.03;;;30.53;62.31
63204;BME280;49297;43.210;27.914;2023-08-24T10:15:09;101141.81;;;30.60;62.22
63204;BME280;49297;43.210;27.914;2023-08-24T10:17:37;101143.25;;;30.68;62.15
63204;BME280;49297;43.210;27.914;2023-08-24T10:20:05;101147.66;;;30.74;61.49
63204;BME280;49297;43.210;27.914;2023-08-24T10:22:36;101146.34;;;30.82;61.54
63204;BME280;49297;43.210;27.914;2023-08-24T10:25:03;101148.25;;;30.81;61.90
63204;BME280;49297;43.210;27.914;2023-08-24T10:27:30;101148.50;;;30.80;61.33
63204;BME280;49297;43.210;27.914;2023-08-24T10:29:56;101149.03;;;30.77;60.81
63204;BME280;49297;43.210;27.914;2023-08-24T10:32:25;101142.25;;;30.79;60.91
63204;BME280;49297;43.210;27.914;2023-08-24T10:34:52;101144.75;;;30.86;60.57
63204;BME280;49297;43.210;27.914;2023-08-24T10:37:25;101132.53;;;30.93;59.85
63204;BME280;49297;43.210;27.914;2023-08-24T10:39:51;101126.28;;;30.98;60.18
63204;BME280;49297;43.210;27.914;2023-08-24T10:42:17;101129.00;;;30.98;59.27
63204;BME280;49297;43.210;27.914;2023-08-24T10:44:46;101129.00;;;30.98;59.72
63204;BME280;49297;43.210;27.914;2023-08-24T10:47:19;101135.03;;;31.00;59.26
63204;BME280;49297;43.210;27.914;2023-08-24T10:52:33;101136.47;;;30.75;60.20
63204;BME280;49297;43.210;27.914;2023-08-24T10:55:02;101135.16;;;30.83;59.85
63204;BME280;49297;43.210;27.914;2023-08-24T10:57:39;101142.88;;;30.91;59.67
63204;BME280;49297;43.210;27.914;2023-08-24T11:00:10;101141.53;;;30.94;59.97
63204;BME280;49297;43.210;27.914;2023-08-24T11:05:20;101119.13;;;30.92;59.31
63204;BME280;49297;43.210;27.914;2023-08-24T11:10:24;101115.13;;;31.15;59.22
63204;BME280;49297;43.210;27.914;2023-08-24T11:15:29;101106.06;;;31.67;58.46
63204;BME280;49297;43.210;27.914;2023-08-24T11:20:51;101097.94;;;32.19;56.91
63204;BME280;49297;43.210;27.914;2023-08-24T11:23:19;101088.06;;;32.49;56.10
63204;BME280;49297;43.210;27.914;2023-08-24T11:25:48;101085.34;;;32.64;55.41
63204;BME280;49297;43.210;27.914;2023-08-24T11:28:20;101103.34;;;32.96;54.57
63204;BME280;49297;43.210;27.914;2023-08-24T11:30:46;101109.66;;;32.96;55.09
63204;BME280;49297;43.210;27.914;2023-08-24T11:33:12;101104.69;;;33.09;54.58
63204;BME280;49297;43.210;27.914;2023-08-24T11:35:42;101096.59;;;33.48;53.67
63204;BME280;49297;43.210;27.914;2023-08-24T11:38:09;101085.06;;;33.96;52.04
63204;BME280;49297;43.210;27.914;2023-08-24T11:40:38;101074.63;;;34.32;50.97
63204;BME280;49297;43.210;27.914;2023-08-24T11:43:04;101081.16;;;34.66;49.57
63204;BME280;49297;43.210;27.914;2023-08-24T11:45:35;101076.88;;;34.84;48.96
63204;BME280;49297;43.210;27.914;2023-08-24T11:48:02;101057.09;;;34.82;49.02
63204;BME280;49297;43.210;27.914;2023-08-24T11:50:30;101043.53;;;34.91;49.15
63204;BME280;49297;43.210;27.914;2023-08-24T11:52:56;101053.06;;;34.98;49.47
63204;BME280;49297;43.210;27.914;2023-08-24T11:55:23;101047.25;;;34.76;49.18
63204;BME280;49297;43.210;27.914;2023-08-24T11:57:50;101040.75;;;34.42;49.98
63204;BME280;49297;43.210;27.914;2023-08-24T12:00:18;101034.34;;;34.23;50.52
63204;BME280;49297;43.210;27.914;2023-08-24T12:02:45;101048.78;;;33.99;51.08
63204;BME280;49297;43.210;27.914;2023-08-24T12:05:24;101044.28;;;33.79;51.04
63204;BME280;49297;43.210;27.914;2023-08-24T12:07:54;101045.28;;;33.49;52.27
63204;BME280;49297;43.210;27.914;2023-08-24T12:10:21;101034.47;;;33.18;53.05
63204;BME280;49297;43.210;27.914;2023-08-24T12:12:47;101041.13;;;33.01;53.37
63204;BME280;49297;43.210;27.914;2023-08-24T12:15:18;101034.00;;;32.95;53.73
63204;BME280;49297;43.210;27.914;2023-08-24T12:17:47;101035.13;;;32.89;54.04
63204;BME280;49297;43.210;27.914;2023-08-24T12:20:21;101036.22;;;32.83;53.60
63204;BME280;49297;43.210;27.914;2023-08-24T12:22:55;101037.91;;;32.69;53.50
63204;BME280;49297;43.210;27.914;2023-08-24T12:25:24;101029.47;;;32.44;54.28
63204;BME280;49297;43.210;27.914;2023-08-24T12:28:12;101024.00;;;32.19;55.01
63204;BME280;49297;43.210;27.914;2023-08-24T12:30:46;101027.28;;;31.95;55.69
63204;BME280;49297;43.210;27.914;2023-08-24T12:33:26;101016.88;;;31.77;56.49
63204;BME280;49297;43.210;27.914;2023-08-24T12:35:53;101011.41;;;31.72;56.98
63204;BME280;49297;43.210;27.914;2023-08-24T12:38:21;101025.31;;;31.55;57.58
63204;BME280;49297;43.210;27.914;2023-08-24T12:40:47;101029.09;;;31.38;57.77
63204;BME280;49297;43.210;27.914;2023-08-24T12:43:13;101022.53;;;31.34;57.99
63204;BME280;49297;43.210;27.914;2023-08-24T12:45:39;101033.44;;;31.24;58.12
63204;BME280;49297;43.210;27.914;2023-08-24T12:48:05;101032.31;;;31.15;58.10
63204;BME280;49297;43.210;27.914;2023-08-24T12:50:33;101033.34;;;30.98;59.20
63204;BME280;49297;43.210;27.914;2023-08-24T12:52:59;101026.41;;;30.85;59.47
63204;BME280;49297;43.210;27.914;2023-08-24T12:55:28;101013.28;;;30.82;59.47
63204;BME280;49297;43.210;27.914;2023-08-24T12:57:56;101007.25;;;30.80;59.34